Time;durP1;ratioP1;P1;durP2;ratioP2;P2;SDS_P1;SDS_P2;PMS_P1;PMS_P2;Temp;Humidity;BMP_temperature;BMP_pressure;BME280_temperature;BME280_humidity;BME280_pressure;Samples;Min_cycle;Max_cycle;Signal;HPM_P1;HPM_P2
2022/09/09 00:01:31;;;;;;;7.20;0.65;;;18.10;99.90;;;;;;6327483;28;20523;-83
2022/09/09 00:04:35;;;;;;;6.85;1.27;;;18.10;99.90;;;;;;6327204;28;20137;-82
2022/09/09 00:07:44;;;;;;;15.52;1.30;;;18.10;99.90;;;;;;6328396;28;20048;-82
2022/09/09 00:10:53;;;;;;;3.72;0.98;;;18.10;99.90;;;;;;6328204;28;20044;-82
2022/09/09 00:13:59;;;;;;;1.13;0.60;;;18.10;99.90;;;;;;6326005;28;20498;-82
2022/09/09 00:17:05;;;;;;;4.00;0.75;;;18.20;99.90;;;;;;6325763;28;20060;-82
2022/09/09 00:20:13;;;;;;;5.72;0.80;;;18.20;99.90;;;;;;6321505;28;20051;-82
2022/09/09 00:23:21;;;;;;;7.45;0.60;;;18.30;99.90;;;;;;6326230;28;20414;-82
2022/09/09 00:26:30;;;;;;;4.83;0.90;;;18.30;99.90;;;;;;6316903;28;20504;-82
2022/09/09 00:29:42;;;;;;;5.32;1.08;;;18.30;99.90;;;;;;6299918;28;20294;-83
2022/09/09 00:32:45;;;;;;;4.25;0.95;;;18.30;99.90;;;;;;6315769;28;20413;-82
2022/09/09 00:35:49;;;;;;;5.28;0.68;;;18.30;99.90;;;;;;6302654;28;20057;-83
2022/09/09 00:38:56;;;;;;;1.88;0.95;;;18.40;99.90;;;;;;6301611;28;20482;-83
2022/09/09 00:42:13;;;;;;;3.47;0.52;;;18.40;99.90;;;;;;6300742;28;20037;-83
2022/09/09 00:45:36;;;;;;;3.28;0.80;;;18.40;99.90;;;;;;6300179;28;20044;-83
2022/09/09 00:48:46;;;;;;;1.42;1.27;;;18.40;99.90;;;;;;6300215;28;20040;-82
2022/09/09 00:51:59;;;;;;;3.47;0.95;;;18.40;99.90;;;;;;6301350;28;20047;-83
2022/09/09 00:55:09;;;;;;;3.38;0.75;;;18.50;99.90;;;;;;6300918;28;20052;-83
2022/09/09 00:58:11;;;;;;;4.13;0.65;;;18.50;99.90;;;;;;6299510;28;20071;-82
2022/09/09 01:01:14;;;;;;;2.65;0.60;;;18.50;99.90;;;;;;6299679;28;20119;-82
2022/09/09 01:04:21;;;;;;;3.05;0.68;;;18.50;99.90;;;;;;6299384;28;20068;-82
2022/09/09 01:07:23;;;;;;;4.10;0.60;;;18.40;99.90;;;;;;6300700;28;20079;-83
2022/09/09 01:10:34;;;;;;;3.40;0.70;;;18.30;99.90;;;;;;6300186;28;20041;-83
2022/09/09 01:13:37;;;;;;;5.72;0.90;;;18.30;99.90;;;;;;6300429;28;20568;-82
2022/09/09 01:16:42;;;;;;;2.70;0.57;;;18.20;99.90;;;;;;6299663;28;20044;-83
2022/09/09 01:19:57;;;;;;;5.43;0.88;;;18.30;99.90;;;;;;6300046;28;20056;-83
2022/09/09 01:23:15;;;;;;;1.98;0.55;;;18.20;99.90;;;;;;6301224;28;20059;-83
2022/09/09 01:26:24;;;;;;;1.25;0.47;;;18.30;99.90;;;;;;6300257;28;20060;-83
2022/09/09 01:29:26;;;;;;;5.13;0.73;;;18.10;99.90;;;;;;6299319;28;20048;-82
2022/09/09 01:32:41;;;;;;;9.23;1.45;;;17.90;99.90;;;;;;6298858;28;20075;-82
2022/09/09 01:35:50;;;;;;;2.55;0.68;;;17.80;99.90;;;;;;6300173;28;20059;-83
2022/09/09 01:38:52;;;;;;;7.25;1.25;;;17.60;99.90;;;;;;6299360;28;20135;-83
2022/09/09 01:41:57;;;;;;;5.15;0.65;;;17.50;99.90;;;;;;6303641;28;20036;-83
2022/09/09 01:44:58;;;;;;;3.05;0.70;;;17.30;99.90;;;;;;6304991;28;20036;-82
2022/09/09 01:48:02;;;;;;;2.03;0.70;;;17.20;99.90;;;;;;6304763;28;20490;-82
2022/09/09 01:51:04;;;;;;;9.18;0.88;;;17.20;99.90;;;;;;6304602;28;20413;-82
2022/09/09 01:54:07;;;;;;;4.05;0.70;;;17.10;99.90;;;;;;6304934;28;20550;-82
2022/09/09 01:57:19;;;;;;;20.20;1.25;;;17.00;99.90;;;;;;6304768;28;20040;-82
2022/09/09 02:00:21;;;;;;;5.30;0.80;;;16.90;99.90;;;;;;6305036;28;20056;-82
2022/09/09 02:03:28;;;;;;;3.83;0.85;;;16.90;99.90;;;;;;6304213;28;20150;-82
2022/09/09 02:06:35;;;;;;;1.85;0.50;;;16.90;99.90;;;;;;6304101;28;20525;-82
2022/09/09 02:09:39;;;;;;;6.40;0.75;;;16.80;99.90;;;;;;6304052;28;20533;-82
2022/09/09 02:12:46;;;;;;;1.45;0.50;;;16.80;99.90;;;;;;6305278;28;20048;-82
2022/09/09 02:15:53;;;;;;;4.18;1.67;;;16.80;99.90;;;;;;6305162;28;20048;-82
2022/09/09 02:19:00;;;;;;;4.80;0.65;;;16.70;99.90;;;;;;6303536;28;20052;-82
2022/09/09 02:22:02;;;;;;;2.50;0.73;;;16.70;99.90;;;;;;6303622;28;20118;-82
2022/09/09 02:25:06;;;;;;;5.43;0.68;;;16.70;99.90;;;;;;6304521;28;20040;-82
2022/09/09 02:28:12;;;;;;;2.78;0.60;;;16.80;99.90;;;;;;6304512;28;20055;-82
2022/09/09 02:31:15;;;;;;;1.88;0.47;;;16.80;99.90;;;;;;6302404;28;20114;-83
2022/09/09 02:34:21;;;;;;;5.72;0.88;;;16.80;99.90;;;;;;6281512;28;20053;-83
2022/09/09 02:37:28;;;;;;;8.40;0.75;;;16.90;99.90;;;;;;6298073;28;20510;-83
2022/09/09 02:40:29;;;;;;;2.70;0.82;;;16.90;99.90;;;;;;6300513;28;20044;-82
2022/09/09 02:43:34;;;;;;;6.45;0.47;;;16.90;99.90;;;;;;6300321;28;20056;-82
2022/09/09 02:46:53;;;;;;;9.73;1.00;;;16.90;99.90;;;;;;6299988;28;20521;-83
2022/09/09 02:50:04;;;;;;;3.13;0.40;;;16.90;99.90;;;;;;6299829;28;20048;-82
2022/09/09 02:53:13;;;;;;;4.03;0.95;;;16.80;99.90;;;;;;6299533;28;20044;-83
2022/09/09 02:56:16;;;;;;;3.13;0.65;;;16.70;99.90;;;;;;6301193;28;20059;-82
2022/09/09 02:59:19;;;;;;;2.45;0.80;;;16.70;99.90;;;;;;6300950;28;20052;-83
2022/09/09 03:02:21;;;;;;;5.05;0.90;;;16.60;99.90;;;;;;6302065;28;20047;-82
2022/09/09 03:05:23;;;;;;;2.15;0.90;;;16.70;99.90;;;;;;6302946;28;20052;-83
2022/09/09 03:08:25;;;;;;;2.65;0.75;;;16.70;99.90;;;;;;6301777;28;20052;-82
2022/09/09 03:11:26;;;;;;;6.93;1.23;;;16.80;99.90;;;;;;6301671;28;20418;-82
2022/09/09 03:14:30;;;;;;;5.03;0.60;;;16.80;99.90;;;;;;6301732;28;20048;-83
2022/09/09 03:17:31;;;;;;;8.75;0.70;;;16.80;99.90;;;;;;6300128;28;20050;-83
2022/09/09 03:20:33;;;;;;;6.70;0.60;;;16.80;99.90;;;;;;6300510;28;20081;-82
2022/09/09 03:23:35;;;;;;;7.30;1.10;;;16.80;99.90;;;;;;6301331;28;20052;-82
2022/09/09 03:26:37;;;;;;;5.15;0.70;;;16.70;99.90;;;;;;6283321;28;20585;-82
2022/09/09 03:29:40;;;;;;;1.35;0.70;;;16.60;99.90;;;;;;6275474;28;20048;-82
2022/09/09 03:32:42;;;;;;;4.78;1.00;;;16.60;99.90;;;;;;6278409;28;20048;-81
2022/09/09 03:35:48;;;;;;;2.95;0.50;;;16.50;99.90;;;;;;6300087;28;20049;-82
2022/09/09 03:38:50;;;;;;;1.25;0.50;;;16.50;99.90;;;;;;6311006;28;20051;-81
2022/09/09 03:41:52;;;;;;;3.15;0.90;;;16.40;99.90;;;;;;6313029;28;20090;-82
2022/09/09 03:44:57;;;;;;;3.80;0.82;;;16.40;99.90;;;;;;6311391;28;20488;-81
2022/09/09 03:48:00;;;;;;;5.60;0.63;;;16.30;99.90;;;;;;6307150;28;20056;-82
2022/09/09 03:51:02;;;;;;;3.63;0.65;;;16.30;99.90;;;;;;6304803;28;20045;-81
2022/09/09 03:54:04;;;;;;;5.85;0.60;;;16.30;99.90;;;;;;6302544;28;20048;-81
2022/09/09 03:57:06;;;;;;;3.35;0.73;;;16.20;99.90;;;;;;6302902;28;20044;-82
2022/09/09 04:00:10;;;;;;;2.60;0.90;;;16.30;99.90;;;;;;6308339;28;20056;-82
2022/09/09 04:03:12;;;;;;;3.15;0.70;;;16.30;99.90;;;;;;6308114;28;20113;-82
2022/09/09 04:06:15;;;;;;;4.07;0.52;;;16.40;99.90;;;;;;6309484;28;20055;-81
2022/09/09 04:09:16;;;;;;;3.80;1.95;;;16.50;99.90;;;;;;6306554;28;20056;-83
2022/09/09 04:12:18;;;;;;;4.00;0.68;;;16.60;99.90;;;;;;6303372;28;20044;-83
2022/09/09 04:15:21;;;;;;;3.92;0.75;;;16.70;99.90;;;;;;6304035;28;20052;-83
2022/09/09 04:18:23;;;;;;;2.97;0.50;;;16.80;99.90;;;;;;6303984;28;20048;-83
2022/09/09 04:21:25;;;;;;;0.88;0.50;;;16.90;99.90;;;;;;6305193;28;20048;-81
2022/09/09 04:24:28;;;;;;;2.85;0.68;;;16.90;99.90;;;;;;6306833;28;20066;-83
2022/09/09 04:27:30;;;;;;;1.70;0.40;;;17.00;99.90;;;;;;6302531;28;20101;-83
2022/09/09 04:30:34;;;;;;;2.85;0.40;;;17.00;99.90;;;;;;6302405;28;20049;-83
2022/09/09 04:33:38;;;;;;;1.38;0.35;;;17.10;99.90;;;;;;6303248;28;20055;-83
2022/09/09 04:36:40;;;;;;;1.85;0.40;;;17.10;99.90;;;;;;6296676;28;20041;-82
2022/09/09 04:39:41;;;;;;;1.88;0.52;;;17.20;99.90;;;;;;6284700;28;20423;-81
2022/09/09 04:42:43;;;;;;;3.95;0.25;;;17.30;99.90;;;;;;6282327;28;20040;-82
2022/09/09 04:45:49;;;;;;;1.08;0.50;;;17.40;99.90;;;;;;6282649;28;20122;-82
2022/09/09 04:48:52;;;;;;;3.28;0.52;;;17.30;99.90;;;;;;6282160;28;20127;-82
2022/09/09 04:51:53;;;;;;;7.40;0.70;;;17.40;99.90;;;;;;6282281;28;20564;-82
2022/09/09 04:54:55;;;;;;;1.65;0.50;;;17.40;99.90;;;;;;6281796;28;20051;-81
2022/09/09 04:57:57;;;;;;;3.70;0.75;;;17.50;99.90;;;;;;6281429;28;20044;-81
2022/09/09 05:01:11;;;;;;;5.60;0.75;;;17.50;99.90;;;;;;6282870;28;20041;-81
2022/09/09 05:04:14;;;;;;;0.93;0.35;;;17.50;99.90;;;;;;6275339;28;20052;-81
2022/09/09 05:07:16;;;;;;;3.70;0.40;;;17.50;99.90;;;;;;6276497;28;20068;-81
2022/09/09 05:10:18;;;;;;;1.55;0.43;;;17.50;99.90;;;;;;6275074;28;20685;-81
2022/09/09 05:13:20;;;;;;;0.75;0.30;;;17.50;99.90;;;;;;6279347;28;20413;-82
2022/09/09 05:16:23;;;;;;;2.45;0.52;;;17.50;99.90;;;;;;6281041;28;20053;-81
2022/09/09 05:19:25;;;;;;;4.40;0.55;;;17.60;99.90;;;;;;6282597;28;20045;-82
2022/09/09 05:22:27;;;;;;;3.38;0.60;;;17.60;99.90;;;;;;6301589;28;20108;-81
2022/09/09 05:25:29;;;;;;;3.00;1.15;;;17.70;99.90;;;;;;6307668;28;20071;-82
2022/09/09 05:28:31;;;;;;;1.70;0.32;;;17.80;99.90;;;;;;6306591;28;20519;-82
2022/09/09 05:31:34;;;;;;;1.83;0.50;;;17.80;99.90;;;;;;6308387;28;20052;-82
2022/09/09 05:34:37;;;;;;;1.95;0.30;;;17.80;99.90;;;;;;6307923;28;20052;-81
2022/09/09 05:37:39;;;;;;;3.83;0.60;;;17.80;99.90;;;;;;6318394;28;20067;-82
2022/09/09 05:40:49;;;;;;;5.47;0.75;;;17.90;99.90;;;;;;6331761;28;20044;-83
2022/09/09 05:43:51;;;;;;;2.70;0.45;;;17.90;99.90;;;;;;6333482;28;20044;-83
2022/09/09 05:46:54;;;;;;;3.75;0.38;;;17.80;99.90;;;;;;6330700;28;20052;-81
2022/09/09 05:49:56;;;;;;;3.60;0.60;;;17.70;99.90;;;;;;6327247;28;20048;-81
2022/09/09 05:52:58;;;;;;;4.57;0.55;;;17.70;99.90;;;;;;6325767;28;20055;-81
2022/09/09 05:56:03;;;;;;;6.70;0.50;;;17.90;99.90;;;;;;6324880;28;20047;-81
2022/09/09 05:59:05;;;;;;;1.85;0.40;;;18.10;99.90;;;;;;6328795;28;20040;-81
2022/09/09 06:02:09;;;;;;;1.80;0.40;;;18.40;99.90;;;;;;6327481;28;20044;-81
2022/09/09 06:05:11;;;;;;;0.80;0.35;;;18.40;99.90;;;;;;6324760;28;20048;-81
2022/09/09 06:08:13;;;;;;;2.15;0.40;;;18.50;99.90;;;;;;6330868;28;20059;-80
2022/09/09 06:11:16;;;;;;;0.80;0.30;;;18.60;99.90;;;;;;6339479;28;20052;-81
2022/09/09 06:14:18;;;;;;;2.38;1.10;;;18.70;99.90;;;;;;6327108;28;20059;-81
2022/09/09 06:17:21;;;;;;;3.13;0.32;;;18.70;99.90;;;;;;6327740;28;20052;-81
2022/09/09 06:20:23;;;;;;;4.10;0.20;;;18.70;99.90;;;;;;6328199;28;20055;-82
2022/09/09 06:23:25;;;;;;;4.38;0.47;;;18.70;99.90;;;;;;6329251;28;20496;-81
2022/09/09 06:26:28;;;;;;;3.85;0.50;;;18.80;99.90;;;;;;6338030;28;20521;-82
2022/09/09 06:29:30;;;;;;;2.92;0.40;;;18.90;99.90;;;;;;6341214;28;20040;-82
2022/09/09 06:32:36;;;;;;;3.17;0.47;;;19.10;99.90;;;;;;6340990;28;20051;-83
2022/09/09 06:35:38;;;;;;;0.80;0.40;;;19.30;99.90;;;;;;6341880;28;20056;-82
2022/09/09 06:38:39;;;;;;;1.13;0.40;;;19.40;99.90;;;;;;6331016;28;20046;-82
2022/09/09 06:41:42;;;;;;;0.95;0.20;;;19.50;99.90;;;;;;6318685;28;20048;-83
2022/09/09 06:44:43;;;;;;;1.85;0.38;;;19.70;99.90;;;;;;6315762;28;20037;-83
2022/09/09 06:47:46;;;;;;;1.55;0.50;;;20.00;99.90;;;;;;6314932;28;20044;-82
2022/09/09 06:50:49;;;;;;;1.90;0.28;;;20.10;99.90;;;;;;6310512;28;20062;-82
2022/09/09 06:53:52;;;;;;;3.60;0.50;;;20.10;99.90;;;;;;6307610;28;20044;-83
2022/09/09 06:56:53;;;;;;;3.78;0.70;;;20.10;99.90;;;;;;6313239;28;20055;-83
2022/09/09 06:59:55;;;;;;;2.50;0.50;;;20.20;99.90;;;;;;6311488;28;20071;-82
2022/09/09 07:02:58;;;;;;;5.55;0.77;;;20.20;99.90;;;;;;6310687;28;20040;-83
2022/09/09 07:06:00;;;;;;;3.38;0.35;;;20.40;99.90;;;;;;6313730;28;20048;-82
2022/09/09 07:09:04;;;;;;;2.55;0.55;;;20.80;99.90;;;;;;6313379;28;20049;-83
2022/09/09 07:12:06;;;;;;;7.47;0.55;;;21.30;99.80;;;;;;6317400;28;20097;-82
2022/09/09 07:15:09;;;;;;;2.90;0.30;;;21.60;98.70;;;;;;6314951;28;20041;-82
2022/09/09 07:18:12;;;;;;;5.18;1.23;;;21.80;98.10;;;;;;6314941;28;20493;-82
2022/09/09 07:21:15;;;;;;;5.10;0.90;;;21.90;97.60;;;;;;6314723;28;20048;-82
2022/09/09 07:24:17;;;;;;;3.63;0.40;;;21.90;97.30;;;;;;6313060;28;20048;-83
2022/09/09 07:27:19;;;;;;;5.15;1.27;;;21.90;97.20;;;;;;6309607;28;20067;-83
2022/09/09 07:30:20;;;;;;;1.73;0.30;;;22.10;97.20;;;;;;6311195;28;20048;-82
2022/09/09 07:33:24;;;;;;;4.10;0.88;;;22.30;96.50;;;;;;6307444;28;20052;-82
2022/09/09 07:36:27;;;;;;;2.28;0.63;;;22.20;95.90;;;;;;6302937;28;20059;-82
2022/09/09 07:39:29;;;;;;;2.63;0.43;;;22.10;95.60;;;;;;6318938;28;20059;-84
2022/09/09 07:42:31;;;;;;;5.30;0.70;;;22.20;95.50;;;;;;6332160;28;20052;-84
2022/09/09 07:45:35;;;;;;;2.05;0.75;;;22.50;95.20;;;;;;6304496;28;20048;-84
2022/09/09 07:48:39;;;;;;;2.60;0.60;;;22.90;94.40;;;;;;6314232;28;20044;-84
2022/09/09 07:51:43;;;;;;;4.03;0.50;;;23.00;94.30;;;;;;6314662;28;20051;-84
2022/09/09 07:54:45;;;;;;;3.55;0.45;;;23.30;94.00;;;;;;6325693;28;20040;-83
2022/09/09 07:57:47;;;;;;;5.30;1.83;;;24.80;91.70;;;;;;6307080;28;20122;-83
2022/09/09 08:00:49;;;;;;;3.65;0.60;;;25.70;87.60;;;;;;6306436;28;20041;-83
2022/09/09 08:03:59;;;;;;;0.98;0.35;;;25.40;84.60;;;;;;6305843;28;20490;-83
2022/09/09 08:07:04;;;;;;;1.67;0.82;;;24.90;86.20;;;;;;6305370;28;20051;-83
2022/09/09 08:10:06;;;;;;;1.83;0.32;;;24.60;87.10;;;;;;6304770;28;20052;-82
2022/09/09 08:13:09;;;;;;;0.40;0.20;;;24.70;87.30;;;;;;6304826;28;20091;-83
2022/09/09 08:16:12;;;;;;;4.20;0.60;;;24.70;84.80;;;;;;6303915;28;20052;-81
2022/09/09 08:19:16;;;;;;;2.78;0.32;;;24.50;84.70;;;;;;6314968;28;20052;-79
2022/09/09 08:22:17;;;;;;;2.40;0.38;;;24.60;84.60;;;;;;6319369;28;20421;-81
2022/09/09 08:25:19;;;;;;;4.78;0.90;;;24.60;83.50;;;;;;6326829;28;20044;-81
2022/09/09 08:28:21;;;;;;;2.78;0.75;;;24.30;84.40;;;;;;6326168;28;20055;-81
2022/09/09 08:31:24;;;;;;;1.95;0.28;;;23.70;87.50;;;;;;6326427;28;20055;-81
2022/09/09 08:34:27;;;;;;;5.80;0.45;;;23.00;90.70;;;;;;6326300;28;20048;-81
2022/09/09 08:37:29;;;;;;;3.75;0.57;;;22.40;92.10;;;;;;6326313;28;20056;-81
2022/09/09 08:40:36;;;;;;;3.38;0.70;;;22.00;92.80;;;;;;6328867;28;20073;-82
2022/09/09 08:43:38;;;;;;;6.18;1.13;;;22.00;94.10;;;;;;6311423;28;20055;-81
2022/09/09 08:46:48;;;;;;;3.00;0.50;;;22.40;93.50;;;;;;6311677;28;20052;-81
2022/09/09 08:50:08;;;;;;;2.20;0.60;;;23.00;92.60;;;;;;6323179;28;20050;-81
2022/09/09 08:53:17;;;;;;;1.45;0.55;;;23.90;92.20;;;;;;6315158;28;20040;-81
2022/09/09 08:56:22;;;;;;;3.60;0.80;;;24.00;91.00;;;;;;6312824;28;20053;-81
2022/09/09 08:59:24;;;;;;;5.53;0.60;;;23.90;91.00;;;;;;6301288;28;20055;-81
2022/09/09 09:02:33;;;;;;;2.15;0.65;;;23.50;91.30;;;;;;6300712;28;20041;-81
2022/09/09 09:05:44;;;;;;;3.50;0.65;;;23.10;92.10;;;;;;6300310;28;20051;-81
2022/09/09 09:08:57;;;;;;;3.92;0.63;;;22.70;92.20;;;;;;6300408;28;20052;-82
2022/09/09 09:12:02;;;;;;;3.60;0.40;;;22.70;93.10;;;;;;6302046;28;20131;-81
2022/09/09 09:15:15;;;;;;;1.58;0.38;;;22.80;93.40;;;;;;6303168;28;20047;-83
2022/09/09 09:18:18;;;;;;;2.03;0.70;;;23.00;93.40;;;;;;6316894;28;20064;-80
2022/09/09 09:21:26;;;;;;;2.47;1.00;;;23.20;93.40;;;;;;6322310;28;20051;-79
2022/09/09 09:24:36;;;;;;;1.33;0.40;;;23.50;92.80;;;;;;6314875;28;20048;-79
2022/09/09 09:27:44;;;;;;;4.55;0.90;;;23.80;92.30;;;;;;6302376;28;20052;-81
2022/09/09 09:30:52;;;;;;;4.55;0.52;;;24.00;90.40;;;;;;6306071;28;20047;-79
2022/09/09 09:33:55;;;;;;;3.65;0.68;;;24.20;88.50;;;;;;6305309;28;20051;-81
2022/09/09 09:37:01;;;;;;;4.50;0.35;;;24.40;88.30;;;;;;6324829;28;20493;-80
2022/09/09 09:40:10;;;;;;;2.35;0.50;;;24.40;86.90;;;;;;6317460;28;20178;-79
2022/09/09 09:43:21;;;;;;;4.72;0.50;;;24.40;87.00;;;;;;6322116;28;20048;-79
2022/09/09 09:46:25;;;;;;;3.80;0.40;;;24.60;85.30;;;;;;6304555;28;20049;-80
2022/09/09 09:49:27;;;;;;;1.30;0.40;;;24.70;84.30;;;;;;6311757;28;20052;-81
2022/09/09 09:52:32;;;;;;;5.95;0.55;;;25.10;81.40;;;;;;6319761;28;20059;-81
2022/09/09 09:55:36;;;;;;;2.78;0.45;;;25.00;80.40;;;;;;6326393;28;20050;-80
2022/09/09 09:58:51;;;;;;;1.25;0.32;;;24.80;81.80;;;;;;6319813;28;20070;-79
2022/09/09 10:01:52;;;;;;;3.55;0.45;;;25.20;80.60;;;;;;6300668;28;20063;-78
2022/09/09 10:05:03;;;;;;;3.17;0.43;;;25.30;78.00;;;;;;6302744;28;20041;-80
2022/09/09 10:08:11;;;;;;;4.47;0.28;;;25.10;78.50;;;;;;6307730;28;20048;-81
2022/09/09 10:11:42;;;;;;;3.83;0.43;;;25.50;79.70;;;;;;6329052;28;20048;-80
2022/09/09 10:14:51;;;;;;;2.42;0.40;;;25.90;74.00;;;;;;6327125;28;20044;-79
2022/09/09 10:18:01;;;;;;;2.28;0.32;;;26.20;74.50;;;;;;6327880;28;20055;-80
2022/09/09 10:21:13;;;;;;;4.07;0.60;;;26.80;72.10;;;;;;6312465;28;20037;-80
2022/09/09 10:24:44;;;;;;;4.60;0.60;;;27.10;68.40;;;;;;6304147;28;20044;-80
2022/09/09 10:28:07;;;;;;;4.10;0.50;;;26.80;68.20;;;;;;6303408;28;20149;-80
2022/09/09 10:31:20;;;;;;;0.25;0.13;;;26.70;66.90;;;;;;6315116;28;20078;-82
2022/09/09 10:34:45;;;;;;;2.55;0.30;;;26.60;66.80;;;;;;6330312;28;20048;-79
2022/09/09 10:38:04;;;;;;;6.70;0.47;;;26.60;66.70;;;;;;6328996;28;20097;-79
2022/09/09 10:41:17;;;;;;;3.47;0.60;;;26.60;66.20;;;;;;6329239;28;20044;-79
2022/09/09 10:44:35;;;;;;;4.32;0.60;;;26.50;66.90;;;;;;6329964;28;20040;-80
2022/09/09 10:47:56;;;;;;;3.47;0.38;;;26.90;65.70;;;;;;6328947;28;20086;-80
2022/09/09 10:51:07;;;;;;;2.83;0.50;;;26.80;64.40;;;;;;6321250;28;20047;-80
2022/09/09 10:54:21;;;;;;;2.65;0.50;;;26.70;64.20;;;;;;6329409;28;20044;-79
2022/09/09 10:57:31;;;;;;;3.00;0.68;;;26.30;65.70;;;;;;6327903;28;20448;-79
2022/09/09 11:00:40;;;;;;;2.47;0.40;;;26.20;65.00;;;;;;6328951;28;20061;-79
2022/09/09 11:03:44;;;;;;;2.03;0.32;;;26.20;63.70;;;;;;6330229;28;20040;-79
2022/09/09 11:06:52;;;;;;;3.03;0.38;;;26.40;63.30;;;;;;6329091;28;20665;-80
2022/09/09 11:09:59;;;;;;;1.23;0.20;;;26.50;63.50;;;;;;6329003;28;20139;-80
2022/09/09 11:13:06;;;;;;;1.85;0.20;;;26.60;62.80;;;;;;6329051;28;20054;-80
2022/09/09 11:16:20;;;;;;;0.65;0.30;;;26.60;63.70;;;;;;6329336;28;20531;-80
2022/09/09 11:19:28;;;;;;;3.15;0.40;;;26.60;63.00;;;;;;6326138;28;20048;-80
2022/09/09 11:22:34;;;;;;;1.50;0.35;;;26.40;63.20;;;;;;6322665;28;20059;-80
2022/09/09 11:25:41;;;;;;;2.67;0.63;;;26.00;64.50;;;;;;6327076;28;20044;-79
2022/09/09 11:29:02;;;;;;;7.43;0.93;;;26.10;64.20;;;;;;6328792;28;20044;-80
2022/09/09 11:32:17;;;;;;;4.68;0.80;;;25.70;66.50;;;;;;6328897;28;20044;-80
2022/09/09 11:35:34;;;;;;;3.08;0.35;;;25.00;69.00;;;;;;6326912;28;20044;-80
2022/09/09 11:38:45;;;;;;;5.57;0.70;;;24.80;70.40;;;;;;6326572;28;20129;-79
2022/09/09 11:41:47;;;;;;;3.80;0.60;;;24.60;70.20;;;;;;6326943;28;20449;-79
2022/09/09 11:44:50;;;;;;;6.47;1.27;;;24.30;70.90;;;;;;6326607;28;20047;-79
2022/09/09 11:47:54;;;;;;;3.55;0.57;;;24.10;72.00;;;;;;6326311;28;20076;-79
2022/09/09 11:51:02;;;;;;;2.50;0.60;;;24.00;72.70;;;;;;6320757;28;20429;-80
2022/09/09 11:54:25;;;;;;;2.17;0.35;;;24.10;73.50;;;;;;6308236;28;20414;-80
2022/09/09 11:57:33;;;;;;;3.38;0.47;;;24.50;72.60;;;;;;6301214;28;20490;-80
2022/09/09 12:00:36;;;;;;;;;;;25.00;70.90;;;;;;6308943;28;20101;-80
2022/09/09 12:03:44;;;;;;;3.88;0.40;;;25.20;68.70;;;;;;6323077;28;19958;-80
2022/09/09 12:06:47;;;;;;;4.95;0.93;;;25.50;68.10;;;;;;6326087;28;20421;-80
2022/09/09 12:09:51;;;;;;;3.33;0.60;;;25.50;68.60;;;;;;6326875;28;20048;-81
2022/09/09 12:12:54;;;;;;;9.57;0.50;;;25.90;68.30;;;;;;6326886;28;20036;-81
2022/09/09 12:15:58;;;;;;;3.88;0.35;;;25.90;65.30;;;;;;6327880;28;20040;-82
2022/09/09 12:19:14;;;;;;;2.13;0.60;;;25.80;64.60;;;;;;6326766;28;20044;-81
2022/09/09 12:22:27;;;;;;;1.08;0.20;;;25.70;64.40;;;;;;6320442;28;20093;-81
2022/09/09 12:25:37;;;;;;;3.00;0.43;;;25.60;64.30;;;;;;6327054;28;20047;-82
2022/09/09 12:28:53;;;;;;;1.80;0.40;;;25.60;64.30;;;;;;6331295;28;20059;-82
2022/09/09 12:32:01;;;;;;;1.30;0.22;;;25.50;64.50;;;;;;6295746;28;20056;-80
2022/09/09 12:35:09;;;;;;;5.43;0.40;;;25.80;64.50;;;;;;6303698;28;20418;-81
2022/09/09 12:38:15;;;;;;;4.25;0.55;;;26.00;63.50;;;;;;6305564;28;20134;-81
2022/09/09 12:41:21;;;;;;;7.05;0.63;;;26.50;62.10;;;;;;6321529;28;20044;-81
2022/09/09 12:44:24;;;;;;;5.03;0.57;;;26.80;60.80;;;;;;6327727;28;20176;-80
2022/09/09 12:47:34;;;;;;;4.60;0.95;;;26.50;60.20;;;;;;6327985;28;20048;-80
2022/09/09 12:50:40;;;;;;;5.53;0.30;;;26.00;61.70;;;;;;6315195;28;20051;-81
2022/09/09 12:53:41;;;;;;;0.30;0.08;;;25.70;64.30;;;;;;6328728;28;20048;-80
2022/09/09 12:56:47;;;;;;;4.25;0.28;;;25.30;65.80;;;;;;6305877;28;20444;-80
2022/09/09 12:59:50;;;;;;;5.00;0.40;;;25.20;67.80;;;;;;6303697;28;20048;-81
2022/09/09 13:02:53;;;;;;;2.05;0.40;;;25.10;68.00;;;;;;6303156;28;20072;-81
2022/09/09 13:06:00;;;;;;;2.40;0.40;;;24.90;68.80;;;;;;6324085;28;20128;-80
2022/09/09 13:09:03;;;;;;;6.47;0.93;;;24.50;71.00;;;;;;6328102;28;20093;-80
2022/09/09 13:12:07;;;;;;;5.22;0.45;;;24.20;72.90;;;;;;6328530;28;20083;-80
2022/09/09 13:15:20;;;;;;;4.25;0.63;;;23.90;74.90;;;;;;6327208;28;20398;-82
2022/09/09 13:18:24;;;;;;;7.07;0.50;;;23.50;77.60;;;;;;6325256;28;20130;-79
2022/09/09 13:21:34;;;;;;;2.85;0.57;;;22.90;79.10;;;;;;6317615;28;20048;-79
2022/09/09 13:24:36;;;;;;;4.38;0.35;;;22.60;80.10;;;;;;6327514;28;20119;-81
2022/09/09 13:27:39;;;;;;;2.90;0.30;;;22.60;80.30;;;;;;6328119;28;20405;-82
2022/09/09 13:30:44;;;;;;;5.70;0.45;;;22.80;80.20;;;;;;6320405;28;20052;-82
2022/09/09 13:33:46;;;;;;;5.80;0.63;;;23.10;78.90;;;;;;6307640;28;20040;-82
2022/09/09 13:36:49;;;;;;;5.47;0.60;;;23.20;77.80;;;;;;6304082;28;20048;-82
2022/09/09 13:39:54;;;;;;;5.13;0.68;;;23.20;79.40;;;;;;6304673;28;20075;-81
2022/09/09 13:42:57;;;;;;;1.50;0.60;;;23.20;79.50;;;;;;6306788;28;20044;-82
2022/09/09 13:46:02;;;;;;;2.53;0.30;;;23.20;81.30;;;;;;6311690;28;20466;-80
2022/09/09 13:49:21;;;;;;;7.38;0.68;;;23.20;82.30;;;;;;6319341;28;20039;-81
2022/09/09 13:52:23;;;;;;;5.43;0.40;;;23.30;82.60;;;;;;6314129;28;20045;-82
2022/09/09 13:55:26;;;;;;;2.53;0.50;;;23.60;83.00;;;;;;6305507;28;20041;-81
2022/09/09 13:58:28;;;;;;;9.60;0.75;;;24.00;82.00;;;;;;6306777;28;20525;-81
2022/09/09 14:01:34;;;;;;;4.13;0.60;;;24.40;79.40;;;;;;6308727;28;20049;-81
2022/09/09 14:04:36;;;;;;;2.35;0.30;;;24.50;77.80;;;;;;6308034;28;20043;-82
2022/09/09 14:07:39;;;;;;;2.10;0.30;;;24.50;79.20;;;;;;6306236;28;20409;-81
2022/09/09 14:10:41;;;;;;;3.67;0.47;;;24.60;79.90;;;;;;6306669;28;20581;-81
2022/09/09 14:13:43;;;;;;;6.15;0.82;;;24.70;78.90;;;;;;6308918;28;20529;-81
2022/09/09 14:16:46;;;;;;;3.60;0.22;;;24.60;77.90;;;;;;6306427;28;20036;-81
2022/09/09 14:19:48;;;;;;;2.15;0.20;;;24.50;75.60;;;;;;6322572;28;20044;-81
2022/09/09 14:22:50;;;;;;;1.52;0.32;;;24.40;75.10;;;;;;6331629;28;20410;-81
2022/09/09 14:25:52;;;;;;;3.92;0.40;;;24.30;75.00;;;;;;6332078;28;20048;-81
2022/09/09 14:28:54;;;;;;;5.20;0.95;;;24.10;76.20;;;;;;6331375;28;20413;-81
2022/09/09 14:31:57;;;;;;;1.95;0.65;;;23.80;77.80;;;;;;6329287;28;20544;-81
2022/09/09 14:34:59;;;;;;;4.70;0.80;;;23.50;78.40;;;;;;6331156;28;20516;-81
2022/09/09 14:38:02;;;;;;;2.25;0.40;;;23.30;79.30;;;;;;6329763;28;20055;-81
2022/09/09 14:41:03;;;;;;;3.50;0.45;;;23.30;80.70;;;;;;6312002;28;20051;-81
2022/09/09 14:44:05;;;;;;;8.25;0.73;;;23.20;81.80;;;;;;6320009;28;20055;-81
2022/09/09 14:47:09;;;;;;;6.93;1.15;;;23.10;83.80;;;;;;6328825;28;20040;-80
2022/09/09 14:50:12;;;;;;;19.85;1.77;;;22.70;88.80;;;;;;6318794;28;20517;-79
2022/09/09 14:53:13;;;;;;;6.75;0.95;;;22.00;92.50;;;;;;6325772;28;20052;-80
2022/09/09 14:56:18;;;;;;;7.78;1.15;;;21.20;96.40;;;;;;6325789;28;20386;-81
2022/09/09 14:59:19;;;;;;;6.78;1.13;;;20.70;98.90;;;;;;6330470;28;20054;-79
2022/09/09 15:02:22;;;;;;;4.35;1.08;;;20.20;99.90;;;;;;6333559;28;20043;-79
2022/09/09 15:05:24;;;;;;;7.30;0.85;;;20.00;99.90;;;;;;6330209;28;20040;-80
2022/09/09 15:08:26;;;;;;;4.78;0.77;;;19.90;99.90;;;;;;6327548;28;20555;-79
2022/09/09 15:11:31;;;;;;;7.75;0.95;;;19.90;99.90;;;;;;6328517;28;20044;-81
2022/09/09 15:14:35;;;;;;;10.23;0.95;;;19.90;99.90;;;;;;6312046;28;20475;-79
2022/09/09 15:17:38;;;;;;;4.68;0.60;;;20.00;99.90;;;;;;6316447;28;20051;-78
2022/09/09 15:20:41;;;;;;;3.22;0.82;;;20.30;99.90;;;;;;6314598;28;20125;-82
2022/09/09 15:23:44;;;;;;;7.13;1.40;;;20.70;99.90;;;;;;6325621;28;20063;-78
2022/09/09 15:26:46;;;;;;;2.17;0.88;;;21.00;99.90;;;;;;6322781;28;20040;-78
2022/09/09 15:29:47;;;;;;;4.85;0.50;;;21.30;99.90;;;;;;6323241;28;20040;-78
2022/09/09 15:32:52;;;;;;;1.55;0.70;;;21.60;99.90;;;;;;6323518;28;20048;-78
2022/09/09 15:35:54;;;;;;;7.57;0.50;;;21.70;99.90;;;;;;6322340;28;20041;-78
2022/09/09 15:38:56;;;;;;;3.33;0.45;;;21.80;99.90;;;;;;6302375;28;20538;-79
2022/09/09 15:41:58;;;;;;;5.80;0.32;;;21.80;99.90;;;;;;6311762;28;20036;-80
2022/09/09 15:45:00;;;;;;;4.70;0.55;;;21.80;99.90;;;;;;6312608;28;20044;-79
2022/09/09 15:48:04;;;;;;;1.23;0.40;;;21.80;99.90;;;;;;6300274;28;20051;-79
2022/09/09 15:51:06;;;;;;;5.13;0.43;;;21.70;99.90;;;;;;6316117;28;20414;-79
2022/09/09 15:54:07;;;;;;;1.38;0.40;;;21.50;99.70;;;;;;6300311;28;20047;-79
2022/09/09 15:57:13;;;;;;;0.43;0.20;;;21.20;98.90;;;;;;6299570;28;20053;-78
2022/09/09 16:00:15;;;;;;;3.00;0.82;;;21.00;98.60;;;;;;6298729;28;20059;-79
2022/09/09 16:03:18;;;;;;;3.00;0.20;;;20.60;97.70;;;;;;6299860;28;20056;-79
2022/09/09 16:06:22;;;;;;;1.75;0.20;;;20.40;98.20;;;;;;6302050;28;20047;-78